Terminal Aerodrome Forecast
Issued by NWS

Home | Current Version | Previous Version | Graphics & Text | Print | Product List | Glossary On
Versions: 1 2 3 4 5 6 7 8 9 10 11 12 13 14 15 16 17 18 19 20 21 22 23 24 25 26 27 28 29 30 31 32 33 34
000
FTUS43 KLOT 250307 AAA
TAFDPA
TAF AMD
KDPA 250307Z 2503/2524 08013KT P6SM -RA SCT045 OVC060
      TEMPO 2503/2507 5SM -RA BKN040
     FM251000 09013KT P6SM VCSH OVC045
     FM251300 09014KT 5SM -RA BR OVC020
     FM251600 08016G22KT 3SM RA BR OVC006
     FM252200 06015G23KT 6SM -RA OVC008=

USA.gov is the U.S. government's official web portal to all federal, state and local government web resources and services.